Allegany, New York
Current Conditions -  °F | °C
As of 4:35 AM on Saturday 20 Dec 2014 (Local Time) from KOLE Reporting Station
Overcast Overcast  
Wind Chill: 21°   Ceiling: 600
Heat Index: 21°   Visibility: 10mi
Dew Point: 21°   Wind: 0mph
Humidity: 100%   Direction: NA
Pressure: 30.16"   Gusts: NA
Location:  42.09°N, 78.49°W
Report Text: KOLE 200935Z AUTO 00000KT 10SM OVC006 M06/M06 A3016 RMK AO2
Loading
Personal Weather Stations






























Interactive Weather Map New forecast layout! Learn more

10-Day Weather Forecast

Advertisements
Track Severe Weather on mobile